sensor_id;sensor_type;location;lat;lon;timestamp;P1;durP1;ratioP1;P2;durP2;ratioP2
37231;SDS011;23125;48.156;15.954;2024-01-16T00:01:57;5.10;;;3.08;;
37231;SDS011;23125;48.156;15.954;2024-01-16T00:04:23;5.00;;;3.08;;
37231;SDS011;23125;48.156;15.954;2024-01-16T00:06:52;4.60;;;2.78;;
37231;SDS011;23125;48.156;15.954;2024-01-16T00:09:18;6.72;;;2.90;;
37231;SDS011;23125;48.156;15.954;2024-01-16T00:11:44;5.75;;;2.50;;
37231;SDS011;23125;48.156;15.954;2024-01-16T00:14:09;3.80;;;2.70;;
37231;SDS011;23125;48.156;15.954;2024-01-16T00:16:45;5.03;;;3.05;;
37231;SDS011;23125;48.156;15.954;2024-01-16T00:19:13;6.75;;;3.10;;
37231;SDS011;23125;48.156;15.954;2024-01-16T00:21:40;6.10;;;3.25;;
37231;SDS011;23125;48.156;15.954;2024-01-16T00:24:07;5.88;;;3.08;;
37231;SDS011;23125;48.156;15.954;2024-01-16T00:26:33;4.55;;;2.90;;
37231;SDS011;23125;48.156;15.954;2024-01-16T00:28:59;4.18;;;2.65;;
37231;SDS011;23125;48.156;15.954;2024-01-16T00:31:26;5.38;;;3.17;;
37231;SDS011;23125;48.156;15.954;2024-01-16T00:33:52;6.90;;;2.83;;
37231;SDS011;23125;48.156;15.954;2024-01-16T00:36:18;4.53;;;2.25;;
37231;SDS011;23125;48.156;15.954;2024-01-16T00:38:44;6.13;;;2.45;;
37231;SDS011;23125;48.156;15.954;2024-01-16T00:41:12;3.20;;;2.17;;
37231;SDS011;23125;48.156;15.954;2024-01-16T00:43:40;5.65;;;3.38;;
37231;SDS011;23125;48.156;15.954;2024-01-16T00:46:07;3.83;;;2.05;;
37231;SDS011;23125;48.156;15.954;2024-01-16T00:48:33;4.85;;;2.97;;
37231;SDS011;23125;48.156;15.954;2024-01-16T00:50:58;5.55;;;3.10;;
37231;SDS011;23125;48.156;15.954;2024-01-16T00:53:25;4.93;;;3.20;;
37231;SDS011;23125;48.156;15.954;2024-01-16T00:55:52;4.65;;;2.42;;
37231;SDS011;23125;48.156;15.954;2024-01-16T00:58:19;5.28;;;3.17;;
37231;SDS011;23125;48.156;15.954;2024-01-16T01:00:47;4.95;;;3.08;;
37231;SDS011;23125;48.156;15.954;2024-01-16T01:03:13;3.92;;;2.58;;
37231;SDS011;23125;48.156;15.954;2024-01-16T01:05:38;5.32;;;2.80;;
37231;SDS011;23125;48.156;15.954;2024-01-16T01:08:04;5.20;;;2.70;;
37231;SDS011;23125;48.156;15.954;2024-01-16T01:10:30;4.05;;;2.88;;
37231;SDS011;23125;48.156;15.954;2024-01-16T01:12:56;4.80;;;2.50;;
37231;SDS011;23125;48.156;15.954;2024-01-16T01:15:22;6.07;;;2.92;;
37231;SDS011;23125;48.156;15.954;2024-01-16T01:17:48;4.53;;;2.63;;
37231;SDS011;23125;48.156;15.954;2024-01-16T01:20:16;6.65;;;2.90;;
37231;SDS011;23125;48.156;15.954;2024-01-16T01:22:43;4.53;;;2.55;;
37231;SDS011;23125;48.156;15.954;2024-01-16T01:25:10;4.25;;;2.53;;
37231;SDS011;23125;48.156;15.954;2024-01-16T01:27:40;4.72;;;2.53;;
37231;SDS011;23125;48.156;15.954;2024-01-16T01:30:06;5.63;;;2.97;;
37231;SDS011;23125;48.156;15.954;2024-01-16T01:32:36;5.57;;;2.78;;
37231;SDS011;23125;48.156;15.954;2024-01-16T01:35:03;4.18;;;2.20;;
37231;SDS011;23125;48.156;15.954;2024-01-16T01:37:30;5.25;;;2.25;;
37231;SDS011;23125;48.156;15.954;2024-01-16T01:39:56;3.05;;;2.35;;
37231;SDS011;23125;48.156;15.954;2024-01-16T01:42:22;5.90;;;2.83;;
37231;SDS011;23125;48.156;15.954;2024-01-16T01:44:48;5.53;;;2.25;;
37231;SDS011;23125;48.156;15.954;2024-01-16T01:47:14;3.67;;;2.20;;
37231;SDS011;23125;48.156;15.954;2024-01-16T01:49:40;3.88;;;2.53;;
37231;SDS011;23125;48.156;15.954;2024-01-16T01:52:06;4.22;;;1.55;;
37231;SDS011;23125;48.156;15.954;2024-01-16T01:54:34;4.97;;;2.70;;
37231;SDS011;23125;48.156;15.954;2024-01-16T01:57:02;3.60;;;2.25;;
37231;SDS011;23125;48.156;15.954;2024-01-16T01:59:29;5.47;;;2.25;;
37231;SDS011;23125;48.156;15.954;2024-01-16T02:01:57;6.43;;;2.55;;
37231;SDS011;23125;48.156;15.954;2024-01-16T02:04:24;3.53;;;2.28;;
37231;SDS011;23125;48.156;15.954;2024-01-16T02:06:51;5.22;;;2.67;;
37231;SDS011;23125;48.156;15.954;2024-01-16T02:09:17;6.18;;;3.28;;
37231;SDS011;23125;48.156;15.954;2024-01-16T02:11:43;3.92;;;1.88;;
37231;SDS011;23125;48.156;15.954;2024-01-16T02:14:09;4.10;;;2.15;;
37231;SDS011;23125;48.156;15.954;2024-01-16T02:16:39;5.65;;;2.80;;
37231;SDS011;23125;48.156;15.954;2024-01-16T02:19:06;3.88;;;2.33;;
37231;SDS011;23125;48.156;15.954;2024-01-16T02:21:37;4.85;;;2.45;;
37231;SDS011;23125;48.156;15.954;2024-01-16T02:24:06;3.67;;;2.28;;
37231;SDS011;23125;48.156;15.954;2024-01-16T02:26:34;4.18;;;2.53;;
37231;SDS011;23125;48.156;15.954;2024-01-16T02:29:01;5.57;;;2.65;;
37231;SDS011;23125;48.156;15.954;2024-01-16T02:31:28;3.97;;;2.25;;
37231;SDS011;23125;48.156;15.954;2024-01-16T02:33:54;5.63;;;2.50;;
37231;SDS011;23125;48.156;15.954;2024-01-16T02:36:20;5.90;;;2.55;;
37231;SDS011;23125;48.156;15.954;2024-01-16T02:38:46;4.32;;;2.33;;
37231;SDS011;23125;48.156;15.954;2024-01-16T02:41:15;3.40;;;2.00;;
37231;SDS011;23125;48.156;15.954;2024-01-16T02:43:42;6.05;;;2.60;;
37231;SDS011;23125;48.156;15.954;2024-01-16T02:46:08;4.93;;;2.45;;
37231;SDS011;23125;48.156;15.954;2024-01-16T02:48:35;5.68;;;2.67;;
37231;SDS011;23125;48.156;15.954;2024-01-16T02:51:01;4.55;;;2.63;;
37231;SDS011;23125;48.156;15.954;2024-01-16T02:55:57;4.05;;;1.80;;
37231;SDS011;23125;48.156;15.954;2024-01-16T02:58:29;4.00;;;1.95;;
37231;SDS011;23125;48.156;15.954;2024-01-16T03:00:56;3.67;;;1.80;;
37231;SDS011;23125;48.156;15.954;2024-01-16T03:03:22;4.15;;;2.03;;
37231;SDS011;23125;48.156;15.954;2024-01-16T03:05:49;4.60;;;2.35;;
37231;SDS011;23125;48.156;15.954;2024-01-16T03:08:15;4.35;;;1.98;;
37231;SDS011;23125;48.156;15.954;2024-01-16T03:10:41;2.53;;;2.00;;
37231;SDS011;23125;48.156;15.954;2024-01-16T03:13:07;5.05;;;2.50;;
37231;SDS011;23125;48.156;15.954;2024-01-16T03:15:33;3.45;;;2.10;;
37231;SDS011;23125;48.156;15.954;2024-01-16T03:17:59;3.50;;;2.55;;
37231;SDS011;23125;48.156;15.954;2024-01-16T03:20:29;9.77;;;4.43;;
37231;SDS011;23125;48.156;15.954;2024-01-16T03:22:55;9.53;;;4.17;;
37231;SDS011;23125;48.156;15.954;2024-01-16T03:25:20;16.27;;;6.50;;
37231;SDS011;23125;48.156;15.954;2024-01-16T03:27:46;12.35;;;5.10;;
37231;SDS011;23125;48.156;15.954;2024-01-16T03:30:12;6.90;;;3.58;;
37231;SDS011;23125;48.156;15.954;2024-01-16T03:32:39;6.47;;;2.80;;
37231;SDS011;23125;48.156;15.954;2024-01-16T03:35:05;5.10;;;3.08;;
37231;SDS011;23125;48.156;15.954;2024-01-16T03:37:32;5.30;;;2.72;;
37231;SDS011;23125;48.156;15.954;2024-01-16T03:39:59;4.03;;;2.42;;
37231;SDS011;23125;48.156;15.954;2024-01-16T03:42:25;4.30;;;2.78;;
37231;SDS011;23125;48.156;15.954;2024-01-16T03:44:51;4.75;;;2.40;;
37231;SDS011;23125;48.156;15.954;2024-01-16T03:47:17;5.78;;;2.60;;
37231;SDS011;23125;48.156;15.954;2024-01-16T03:49:43;4.13;;;2.35;;
37231;SDS011;23125;48.156;15.954;2024-01-16T03:52:09;4.30;;;1.90;;
37231;SDS011;23125;48.156;15.954;2024-01-16T03:54:34;3.95;;;1.92;;
37231;SDS011;23125;48.156;15.954;2024-01-16T03:57:00;3.50;;;1.67;;
37231;SDS011;23125;48.156;15.954;2024-01-16T03:59:26;5.35;;;1.75;;
37231;SDS011;23125;48.156;15.954;2024-01-16T04:01:52;4.43;;;2.10;;
37231;SDS011;23125;48.156;15.954;2024-01-16T04:04:18;3.97;;;1.98;;
37231;SDS011;23125;48.156;15.954;2024-01-16T04:06:44;2.55;;;2.00;;
37231;SDS011;23125;48.156;15.954;2024-01-16T04:09:11;4.72;;;1.83;;
37231;SDS011;23125;48.156;15.954;2024-01-16T04:11:38;3.28;;;1.95;;
37231;SDS011;23125;48.156;15.954;2024-01-16T04:14:04;4.80;;;2.30;;
37231;SDS011;23125;48.156;15.954;2024-01-16T04:16:30;3.47;;;2.15;;
37231;SDS011;23125;48.156;15.954;2024-01-16T04:18:56;2.67;;;2.00;;
37231;SDS011;23125;48.156;15.954;2024-01-16T04:21:22;4.18;;;2.13;;
37231;SDS011;23125;48.156;15.954;2024-01-16T04:23:48;5.25;;;2.50;;
37231;SDS011;23125;48.156;15.954;2024-01-16T04:26:13;6.72;;;2.95;;
37231;SDS011;23125;48.156;15.954;2024-01-16T04:28:39;10.75;;;3.53;;
37231;SDS011;23125;48.156;15.954;2024-01-16T04:31:05;5.28;;;2.47;;
37231;SDS011;23125;48.156;15.954;2024-01-16T04:33:31;4.22;;;1.63;;
37231;SDS011;23125;48.156;15.954;2024-01-16T04:35:58;1.98;;;1.48;;
37231;SDS011;23125;48.156;15.954;2024-01-16T04:38:24;3.15;;;1.70;;
37231;SDS011;23125;48.156;15.954;2024-01-16T04:40:49;3.63;;;1.50;;
37231;SDS011;23125;48.156;15.954;2024-01-16T04:43:15;3.20;;;1.85;;
37231;SDS011;23125;48.156;15.954;2024-01-16T04:45:41;3.83;;;1.88;;
37231;SDS011;23125;48.156;15.954;2024-01-16T04:48:07;3.65;;;1.70;;
37231;SDS011;23125;48.156;15.954;2024-01-16T04:50:34;2.33;;;1.30;;
37231;SDS011;23125;48.156;15.954;2024-01-16T04:53:01;7.97;;;3.47;;
37231;SDS011;23125;48.156;15.954;2024-01-16T04:55:30;22.15;;;7.32;;
37231;SDS011;23125;48.156;15.954;2024-01-16T04:57:56;10.10;;;4.68;;
37231;SDS011;23125;48.156;15.954;2024-01-16T05:00:23;4.18;;;2.22;;
37231;SDS011;23125;48.156;15.954;2024-01-16T05:02:49;5.00;;;2.10;;
37231;SDS011;23125;48.156;15.954;2024-01-16T05:05:16;3.65;;;1.58;;
37231;SDS011;23125;48.156;15.954;2024-01-16T05:07:42;8.10;;;3.03;;
37231;SDS011;23125;48.156;15.954;2024-01-16T05:10:11;7.45;;;2.88;;
37231;SDS011;23125;48.156;15.954;2024-01-16T05:12:40;4.63;;;1.90;;
37231;SDS011;23125;48.156;15.954;2024-01-16T05:15:07;2.90;;;1.38;;
37231;SDS011;23125;48.156;15.954;2024-01-16T05:20:03;4.03;;;1.42;;
37231;SDS011;23125;48.156;15.954;2024-01-16T05:22:30;1.98;;;1.10;;
37231;SDS011;23125;48.156;15.954;2024-01-16T05:24:56;2.85;;;1.50;;
37231;SDS011;23125;48.156;15.954;2024-01-16T05:27:22;3.15;;;1.38;;
37231;SDS011;23125;48.156;15.954;2024-01-16T05:29:48;1.90;;;1.40;;
37231;SDS011;23125;48.156;15.954;2024-01-16T05:32:13;2.05;;;1.10;;
37231;SDS011;23125;48.156;15.954;2024-01-16T05:34:39;3.15;;;1.45;;
37231;SDS011;23125;48.156;15.954;2024-01-16T05:37:05;4.18;;;1.70;;
37231;SDS011;23125;48.156;15.954;2024-01-16T05:39:31;5.78;;;1.42;;
37231;SDS011;23125;48.156;15.954;2024-01-16T05:41:57;6.22;;;1.40;;
37231;SDS011;23125;48.156;15.954;2024-01-16T05:44:23;1.42;;;0.93;;
37231;SDS011;23125;48.156;15.954;2024-01-16T05:46:48;1.95;;;0.90;;
37231;SDS011;23125;48.156;15.954;2024-01-16T05:49:14;2.70;;;1.13;;
37231;SDS011;23125;48.156;15.954;2024-01-16T05:51:40;2.88;;;1.17;;
37231;SDS011;23125;48.156;15.954;2024-01-16T05:54:06;1.90;;;1.10;;
37231;SDS011;23125;48.156;15.954;2024-01-16T05:56:32;4.30;;;0.70;;
37231;SDS011;23125;48.156;15.954;2024-01-16T05:58:59;1.40;;;0.88;;
37231;SDS011;23125;48.156;15.954;2024-01-16T06:01:25;2.13;;;0.88;;
37231;SDS011;23125;48.156;15.954;2024-01-16T06:03:52;2.67;;;1.00;;
37231;SDS011;23125;48.156;15.954;2024-01-16T06:06:18;3.50;;;1.13;;
37231;SDS011;23125;48.156;15.954;2024-01-16T06:08:44;1.17;;;0.75;;
37231;SDS011;23125;48.156;15.954;2024-01-16T06:11:10;4.15;;;0.90;;
37231;SDS011;23125;48.156;15.954;2024-01-16T06:13:36;2.10;;;0.82;;
37231;SDS011;23125;48.156;15.954;2024-01-16T06:16:02;2.92;;;0.98;;
37231;SDS011;23125;48.156;15.954;2024-01-16T06:18:28;2.20;;;1.00;;
37231;SDS011;23125;48.156;15.954;2024-01-16T06:20:54;2.00;;;1.10;;
37231;SDS011;23125;48.156;15.954;2024-01-16T06:23:20;3.22;;;1.88;;
37231;SDS011;23125;48.156;15.954;2024-01-16T06:25:46;2.92;;;1.05;;
37231;SDS011;23125;48.156;15.954;2024-01-16T06:28:12;0.82;;;0.50;;
37231;SDS011;23125;48.156;15.954;2024-01-16T06:30:38;5.28;;;1.25;;
37231;SDS011;23125;48.156;15.954;2024-01-16T06:33:03;3.35;;;0.93;;
37231;SDS011;23125;48.156;15.954;2024-01-16T06:35:30;1.85;;;0.93;;
37231;SDS011;23125;48.156;15.954;2024-01-16T06:37:56;2.28;;;1.05;;
37231;SDS011;23125;48.156;15.954;2024-01-16T06:40:21;2.90;;;1.17;;
37231;SDS011;23125;48.156;15.954;2024-01-16T06:42:47;3.63;;;1.23;;
37231;SDS011;23125;48.156;15.954;2024-01-16T06:45:13;3.10;;;0.80;;
37231;SDS011;23125;48.156;15.954;2024-01-16T06:47:41;3.33;;;1.25;;
37231;SDS011;23125;48.156;15.954;2024-01-16T06:50:07;4.38;;;1.08;;
37231;SDS011;23125;48.156;15.954;2024-01-16T06:52:33;2.97;;;1.25;;
37231;SDS011;23125;48.156;15.954;2024-01-16T06:54:59;0.75;;;0.50;;
37231;SDS011;23125;48.156;15.954;2024-01-16T06:57:25;4.78;;;0.95;;
37231;SDS011;23125;48.156;15.954;2024-01-16T06:59:52;4.55;;;0.98;;
37231;SDS011;23125;48.156;15.954;2024-01-16T07:02:18;5.32;;;1.08;;
37231;SDS011;23125;48.156;15.954;2024-01-16T07:04:44;2.65;;;0.98;;
37231;SDS011;23125;48.156;15.954;2024-01-16T07:07:10;2.28;;;1.02;;
37231;SDS011;23125;48.156;15.954;2024-01-16T07:09:36;4.55;;;0.90;;
37231;SDS011;23125;48.156;15.954;2024-01-16T07:12:02;2.28;;;1.00;;
37231;SDS011;23125;48.156;15.954;2024-01-16T07:14:29;1.17;;;0.80;;
37231;SDS011;23125;48.156;15.954;2024-01-16T07:16:54;2.28;;;0.98;;
37231;SDS011;23125;48.156;15.954;2024-01-16T07:19:20;5.63;;;2.05;;
37231;SDS011;23125;48.156;15.954;2024-01-16T07:21:46;3.83;;;1.27;;
37231;SDS011;23125;48.156;15.954;2024-01-16T07:24:12;2.88;;;0.90;;
37231;SDS011;23125;48.156;15.954;2024-01-16T07:26:39;8.80;;;1.48;;
37231;SDS011;23125;48.156;15.954;2024-01-16T07:29:06;4.32;;;1.10;;
37231;SDS011;23125;48.156;15.954;2024-01-16T07:31:32;4.53;;;1.52;;
37231;SDS011;23125;48.156;15.954;2024-01-16T07:33:58;4.60;;;1.27;;
37231;SDS011;23125;48.156;15.954;2024-01-16T07:36:24;2.47;;;0.90;;
37231;SDS011;23125;48.156;15.954;2024-01-16T07:38:49;1.92;;;0.77;;
37231;SDS011;23125;48.156;15.954;2024-01-16T07:41:15;2.75;;;1.00;;
37231;SDS011;23125;48.156;15.954;2024-01-16T07:43:41;2.45;;;1.00;;
37231;SDS011;23125;48.156;15.954;2024-01-16T07:46:07;4.00;;;1.30;;
37231;SDS011;23125;48.156;15.954;2024-01-16T07:48:33;5.13;;;1.88;;
37231;SDS011;23125;48.156;15.954;2024-01-16T07:50:59;5.40;;;1.27;;
37231;SDS011;23125;48.156;15.954;2024-01-16T07:53:25;3.38;;;1.08;;
37231;SDS011;23125;48.156;15.954;2024-01-16T07:55:53;4.25;;;1.30;;
37231;SDS011;23125;48.156;15.954;2024-01-16T07:58:20;3.08;;;1.20;;
37231;SDS011;23125;48.156;15.954;2024-01-16T08:00:49;5.28;;;0.93;;
37231;SDS011;23125;48.156;15.954;2024-01-16T08:03:15;2.45;;;0.70;;
37231;SDS011;23125;48.156;15.954;2024-01-16T08:05:41;2.60;;;0.88;;
37231;SDS011;23125;48.156;15.954;2024-01-16T08:08:10;1.75;;;0.88;;
37231;SDS011;23125;48.156;15.954;2024-01-16T08:10:36;3.00;;;0.95;;
37231;SDS011;23125;48.156;15.954;2024-01-16T08:13:01;5.45;;;1.50;;
37231;SDS011;23125;48.156;15.954;2024-01-16T08:15:28;4.50;;;1.30;;
37231;SDS011;23125;48.156;15.954;2024-01-16T08:17:54;2.78;;;1.20;;
37231;SDS011;23125;48.156;15.954;2024-01-16T08:20:20;3.08;;;1.10;;
37231;SDS011;23125;48.156;15.954;2024-01-16T08:22:46;4.05;;;1.27;;
37231;SDS011;23125;48.156;15.954;2024-01-16T08:25:12;5.25;;;1.20;;
37231;SDS011;23125;48.156;15.954;2024-01-16T08:27:37;2.85;;;1.15;;
37231;SDS011;23125;48.156;15.954;2024-01-16T08:30:06;4.05;;;1.33;;
37231;SDS011;23125;48.156;15.954;2024-01-16T08:32:32;7.03;;;1.60;;
37231;SDS011;23125;48.156;15.954;2024-01-16T08:34:58;5.80;;;2.08;;
37231;SDS011;23125;48.156;15.954;2024-01-16T08:37:24;11.40;;;3.20;;
37231;SDS011;23125;48.156;15.954;2024-01-16T08:39:50;6.40;;;1.65;;
37231;SDS011;23125;48.156;15.954;2024-01-16T08:42:17;3.60;;;1.48;;
37231;SDS011;23125;48.156;15.954;2024-01-16T08:44:43;5.63;;;1.08;;
37231;SDS011;23125;48.156;15.954;2024-01-16T08:47:09;2.65;;;0.85;;
37231;SDS011;23125;48.156;15.954;2024-01-16T08:49:35;2.35;;;1.00;;
37231;SDS011;23125;48.156;15.954;2024-01-16T08:52:03;5.28;;;1.23;;
37231;SDS011;23125;48.156;15.954;2024-01-16T08:54:30;3.90;;;1.15;;
37231;SDS011;23125;48.156;15.954;2024-01-16T08:56:56;4.20;;;1.23;;
37231;SDS011;23125;48.156;15.954;2024-01-16T08:59:23;4.35;;;0.98;;
37231;SDS011;23125;48.156;15.954;2024-01-16T09:01:49;4.53;;;1.48;;
37231;SDS011;23125;48.156;15.954;2024-01-16T09:04:17;5.05;;;1.25;;
37231;SDS011;23125;48.156;15.954;2024-01-16T09:06:42;5.65;;;1.30;;
37231;SDS011;23125;48.156;15.954;2024-01-16T09:09:08;3.72;;;1.00;;
37231;SDS011;23125;48.156;15.954;2024-01-16T09:11:34;4.13;;;1.10;;
37231;SDS011;23125;48.156;15.954;2024-01-16T09:14:00;2.03;;;0.90;;
37231;SDS011;23125;48.156;15.954;2024-01-16T09:16:26;2.85;;;0.82;;
37231;SDS011;23125;48.156;15.954;2024-01-16T09:18:52;3.25;;;1.10;;
37231;SDS011;23125;48.156;15.954;2024-01-16T09:21:18;6.40;;;1.40;;
37231;SDS011;23125;48.156;15.954;2024-01-16T09:23:44;7.68;;;1.13;;
37231;SDS011;23125;48.156;15.954;2024-01-16T09:26:09;3.47;;;1.40;;
37231;SDS011;23125;48.156;15.954;2024-01-16T09:28:36;2.53;;;1.00;;
37231;SDS011;23125;48.156;15.954;2024-01-16T09:31:01;2.58;;;1.10;;
37231;SDS011;23125;48.156;15.954;2024-01-16T09:33:27;2.10;;;0.90;;
37231;SDS011;23125;48.156;15.954;2024-01-16T09:35:53;2.78;;;1.10;;
37231;SDS011;23125;48.156;15.954;2024-01-16T09:38:19;2.75;;;0.73;;
37231;SDS011;23125;48.156;15.954;2024-01-16T09:40:46;4.10;;;1.20;;
37231;SDS011;23125;48.156;15.954;2024-01-16T09:43:13;4.38;;;0.88;;
37231;SDS011;23125;48.156;15.954;2024-01-16T09:45:39;3.80;;;0.68;;
37231;SDS011;23125;48.156;15.954;2024-01-16T09:48:06;4.50;;;0.90;;
37231;SDS011;23125;48.156;15.954;2024-01-16T09:50:33;2.47;;;0.80;;
37231;SDS011;23125;48.156;15.954;2024-01-16T09:53:00;3.30;;;0.90;;
37231;SDS011;23125;48.156;15.954;2024-01-16T09:55:26;5.05;;;0.90;;
37231;SDS011;23125;48.156;15.954;2024-01-16T09:57:52;3.97;;;0.95;;
37231;SDS011;23125;48.156;15.954;2024-01-16T10:00:18;4.05;;;1.10;;
37231;SDS011;23125;48.156;15.954;2024-01-16T10:02:46;2.75;;;0.77;;
37231;SDS011;23125;48.156;15.954;2024-01-16T10:05:13;1.83;;;0.70;;
37231;SDS011;23125;48.156;15.954;2024-01-16T10:07:40;1.98;;;0.90;;
37231;SDS011;23125;48.156;15.954;2024-01-16T10:10:10;2.50;;;1.00;;
37231;SDS011;23125;48.156;15.954;2024-01-16T10:12:36;2.38;;;0.82;;
37231;SDS011;23125;48.156;15.954;2024-01-16T10:15:07;1.83;;;1.10;;
37231;SDS011;23125;48.156;15.954;2024-01-16T10:17:40;1.42;;;0.70;;
37231;SDS011;23125;48.156;15.954;2024-01-16T10:20:08;4.13;;;0.90;;
37231;SDS011;23125;48.156;15.954;2024-01-16T10:22:41;2.83;;;0.88;;
37231;SDS011;23125;48.156;15.954;2024-01-16T10:25:17;3.10;;;1.38;;
37231;SDS011;23125;48.156;15.954;2024-01-16T10:27:45;3.40;;;0.80;;
37231;SDS011;23125;48.156;15.954;2024-01-16T10:30:11;3.58;;;0.85;;
37231;SDS011;23125;48.156;15.954;2024-01-16T10:32:38;3.63;;;0.85;;
37231;SDS011;23125;48.156;15.954;2024-01-16T10:35:09;3.58;;;1.30;;
37231;SDS011;23125;48.156;15.954;2024-01-16T10:37:55;4.43;;;1.70;;
37231;SDS011;23125;48.156;15.954;2024-01-16T10:40:22;3.08;;;1.20;;
37231;SDS011;23125;48.156;15.954;2024-01-16T10:43:01;2.10;;;0.60;;
37231;SDS011;23125;48.156;15.954;2024-01-16T10:45:29;3.28;;;1.60;;
37231;SDS011;23125;48.156;15.954;2024-01-16T10:48:02;3.63;;;1.10;;
37231;SDS011;23125;48.156;15.954;2024-01-16T10:50:32;6.30;;;1.15;;
37231;SDS011;23125;48.156;15.954;2024-01-16T10:52:59;5.97;;;1.27;;
37231;SDS011;23125;48.156;15.954;2024-01-16T10:55:29;2.10;;;0.70;;
37231;SDS011;23125;48.156;15.954;2024-01-16T10:57:58;2.97;;;1.00;;
37231;SDS011;23125;48.156;15.954;2024-01-16T11:00:28;5.63;;;1.20;;
37231;SDS011;23125;48.156;15.954;2024-01-16T11:02:59;2.72;;;1.40;;
37231;SDS011;23125;48.156;15.954;2024-01-16T11:05:33;5.05;;;1.23;;
37231;SDS011;23125;48.156;15.954;2024-01-16T11:08:01;6.13;;;3.33;;
37231;SDS011;23125;48.156;15.954;2024-01-16T11:10:29;6.88;;;1.80;;
37231;SDS011;23125;48.156;15.954;2024-01-16T11:13:00;2.45;;;0.70;;
37231;SDS011;23125;48.156;15.954;2024-01-16T11:17:57;3.70;;;1.58;;
37231;SDS011;23125;48.156;15.954;2024-01-16T11:20:25;3.33;;;1.00;;
37231;SDS011;23125;48.156;15.954;2024-01-16T11:22:52;4.03;;;0.57;;
37231;SDS011;23125;48.156;15.954;2024-01-16T11:25:31;0.82;;;0.50;;
37231;SDS011;23125;48.156;15.954;2024-01-16T11:28:11;2.55;;;0.60;;
37231;SDS011;23125;48.156;15.954;2024-01-16T11:30:39;2.72;;;0.80;;
37231;SDS011;23125;48.156;15.954;2024-01-16T11:33:06;1.65;;;0.30;;
37231;SDS011;23125;48.156;15.954;2024-01-16T11:35:52;5.40;;;0.80;;
37231;SDS011;23125;48.156;15.954;2024-01-16T11:38:18;2.78;;;0.47;;
37231;SDS011;23125;48.156;15.954;2024-01-16T11:40:46;2.65;;;0.70;;
37231;SDS011;23125;48.156;15.954;2024-01-16T11:45:57;4.32;;;0.30;;
37231;SDS011;23125;48.156;15.954;2024-01-16T11:48:24;1.00;;;0.40;;
37231;SDS011;23125;48.156;15.954;2024-01-16T11:50:51;0.45;;;0.22;;
37231;SDS011;23125;48.156;15.954;2024-01-16T12:01:11;5.35;;;4.50;;
37231;SDS011;23125;48.156;15.954;2024-01-16T12:03:37;1.35;;;0.22;;
37231;SDS011;23125;48.156;15.954;2024-01-16T12:06:03;1.90;;;0.30;;
37231;SDS011;23125;48.156;15.954;2024-01-16T12:08:32;1.20;;;0.50;;
37231;SDS011;23125;48.156;15.954;2024-01-16T12:10:59;1.75;;;0.30;;
37231;SDS011;23125;48.156;15.954;2024-01-16T12:13:25;0.77;;;0.17;;
37231;SDS011;23125;48.156;15.954;2024-01-16T12:16:00;3.08;;;0.30;;
37231;SDS011;23125;48.156;15.954;2024-01-16T12:18:29;0.88;;;0.20;;
37231;SDS011;23125;48.156;15.954;2024-01-16T12:20:56;2.20;;;0.38;;
37231;SDS011;23125;48.156;15.954;2024-01-16T12:23:23;2.78;;;0.47;;
37231;SDS011;23125;48.156;15.954;2024-01-16T12:25:52;2.35;;;0.30;;
37231;SDS011;23125;48.156;15.954;2024-01-16T12:28:24;3.28;;;0.45;;
37231;SDS011;23125;48.156;15.954;2024-01-16T12:30:50;2.22;;;0.30;;
37231;SDS011;23125;48.156;15.954;2024-01-16T12:33:20;1.50;;;0.30;;
37231;SDS011;23125;48.156;15.954;2024-01-16T12:35:47;1.58;;;0.50;;
37231;SDS011;23125;48.156;15.954;2024-01-16T12:38:14;6.85;;;0.57;;
37231;SDS011;23125;48.156;15.954;2024-01-16T12:40:41;3.75;;;0.50;;
37231;SDS011;23125;48.156;15.954;2024-01-16T12:43:19;1.88;;;0.50;;
37231;SDS011;23125;48.156;15.954;2024-01-16T12:45:45;1.93;;;0.90;;
37231;SDS011;23125;48.156;15.954;2024-01-16T12:48:12;3.65;;;0.93;;
37231;SDS011;23125;48.156;15.954;2024-01-16T12:50:38;2.03;;;0.52;;
37231;SDS011;23125;48.156;15.954;2024-01-16T12:53:05;2.28;;;0.20;;
37231;SDS011;23125;48.156;15.954;2024-01-16T12:55:38;0.80;;;0.17;;
37231;SDS011;23125;48.156;15.954;2024-01-16T13:00:49;5.03;;;1.50;;
37231;SDS011;23125;48.156;15.954;2024-01-16T13:03:16;8.70;;;3.42;;
37231;SDS011;23125;48.156;15.954;2024-01-16T13:05:43;5.68;;;2.22;;
37231;SDS011;23125;48.156;15.954;2024-01-16T13:08:17;2.95;;;1.10;;
37231;SDS011;23125;48.156;15.954;2024-01-16T13:10:44;3.72;;;0.50;;
37231;SDS011;23125;48.156;15.954;2024-01-16T13:13:11;2.45;;;1.23;;
37231;SDS011;23125;48.156;15.954;2024-01-16T13:15:42;2.75;;;0.73;;
37231;SDS011;23125;48.156;15.954;2024-01-16T13:18:20;1.92;;;0.63;;
37231;SDS011;23125;48.156;15.954;2024-01-16T13:20:51;3.47;;;0.80;;
37231;SDS011;23125;48.156;15.954;2024-01-16T13:23:19;4.72;;;1.17;;
37231;SDS011;23125;48.156;15.954;2024-01-16T13:25:46;6.43;;;0.90;;
37231;SDS011;23125;48.156;15.954;2024-01-16T13:28:14;3.78;;;0.88;;
37231;SDS011;23125;48.156;15.954;2024-01-16T13:30:41;11.25;;;4.93;;
37231;SDS011;23125;48.156;15.954;2024-01-16T13:33:08;10.43;;;2.83;;
37231;SDS011;23125;48.156;15.954;2024-01-16T13:35:41;8.85;;;2.47;;
37231;SDS011;23125;48.156;15.954;2024-01-16T13:38:12;3.75;;;0.98;;
37231;SDS011;23125;48.156;15.954;2024-01-16T13:40:42;2.60;;;1.08;;
37231;SDS011;23125;48.156;15.954;2024-01-16T13:43:08;5.18;;;1.55;;
37231;SDS011;23125;48.156;15.954;2024-01-16T13:45:34;4.60;;;2.30;;
37231;SDS011;23125;48.156;15.954;2024-01-16T13:48:01;6.72;;;2.22;;
37231;SDS011;23125;48.156;15.954;2024-01-16T13:50:27;1.80;;;0.95;;
37231;SDS011;23125;48.156;15.954;2024-01-16T13:52:55;2.30;;;0.60;;
37231;SDS011;23125;48.156;15.954;2024-01-16T13:55:21;3.05;;;0.63;;
37231;SDS011;23125;48.156;15.954;2024-01-16T13:57:47;3.47;;;0.60;;
37231;SDS011;23125;48.156;15.954;2024-01-16T14:00:13;3.13;;;0.70;;
37231;SDS011;23125;48.156;15.954;2024-01-16T14:02:46;5.45;;;0.98;;
37231;SDS011;23125;48.156;15.954;2024-01-16T14:05:17;3.78;;;0.75;;
37231;SDS011;23125;48.156;15.954;2024-01-16T14:07:44;1.92;;;0.60;;
37231;SDS011;23125;48.156;15.954;2024-01-16T14:10:12;4.13;;;0.95;;
37231;SDS011;23125;48.156;15.954;2024-01-16T14:12:42;5.63;;;0.95;;
37231;SDS011;23125;48.156;15.954;2024-01-16T14:15:10;3.03;;;0.88;;
37231;SDS011;23125;48.156;15.954;2024-01-16T14:17:48;1.83;;;0.75;;
37231;SDS011;23125;48.156;15.954;2024-01-16T14:20:22;2.58;;;0.80;;
37231;SDS011;23125;48.156;15.954;2024-01-16T14:22:49;1.80;;;0.60;;
37231;SDS011;23125;48.156;15.954;2024-01-16T14:25:17;3.08;;;0.85;;
37231;SDS011;23125;48.156;15.954;2024-01-16T14:28:16;2.92;;;0.80;;
37231;SDS011;23125;48.156;15.954;2024-01-16T14:30:37;2.22;;;0.50;;
37231;SDS011;23125;48.156;15.954;2024-01-16T14:33:03;3.33;;;0.73;;
37231;SDS011;23125;48.156;15.954;2024-01-16T14:35:32;1.20;;;0.60;;
37231;SDS011;23125;48.156;15.954;2024-01-16T14:37:58;2.13;;;0.80;;
37231;SDS011;23125;48.156;15.954;2024-01-16T14:40:24;2.47;;;0.60;;
37231;SDS011;23125;48.156;15.954;2024-01-16T14:42:51;2.88;;;0.90;;
37231;SDS011;23125;48.156;15.954;2024-01-16T14:45:22;3.13;;;1.65;;
37231;SDS011;23125;48.156;15.954;2024-01-16T14:47:48;2.35;;;0.57;;
37231;SDS011;23125;48.156;15.954;2024-01-16T14:50:16;1.83;;;0.82;;
37231;SDS011;23125;48.156;15.954;2024-01-16T14:52:46;4.43;;;0.90;;
37231;SDS011;23125;48.156;15.954;2024-01-16T14:55:15;2.60;;;1.00;;